Time;durP1;ratioP1;P1;durP2;ratioP2;P2;SDS_P1;SDS_P2;PMS_P1;PMS_P2;Temp;Humidity;BMP_temperature;BMP_pressure;BME280_temperature;BME280_humidity;BME280_pressure;Samples;Min_cycle;Max_cycle;Signal;HPM_P1;HPM_P2
2022/05/19 00:02:23;;;;;;;3.80;3.50;;;;;;;;;;6238567;23;20373;-54
2022/05/19 00:04:49;;;;;;;3.67;3.37;;;;;;;;;;6231862;23;20434;-54
2022/05/19 00:07:15;;;;;;;6.60;3.57;;;;;;;;;;6234949;23;20366;-52
2022/05/19 00:09:58;;;;;;;6.03;3.77;;;;;;;;;;6231230;23;20362;-53
2022/05/19 00:12:29;;;;;;;3.70;3.37;;;;;;;;;;6262817;22;20523;-53
2022/05/19 00:14:57;;;;;;;6.17;4.10;;;;;;;;;;6216737;23;20507;-54
2022/05/19 00:17:23;;;;;;;5.13;3.77;;;;;;;;;;6236001;22;20715;-53
2022/05/19 00:19:53;;;;;;;5.67;3.70;;;;;;;;;;6235337;23;20370;-54
2022/05/19 00:22:28;;;;;;;4.10;3.70;;;;;;;;;;6236721;23;20384;-54
2022/05/19 00:24:55;;;;;;;4.30;3.77;;;;;;;;;;6233690;22;20528;-54
2022/05/19 00:27:20;;;;;;;4.10;3.30;;;;;;;;;;6235278;23;20398;-54
2022/05/19 00:30:04;;;;;;;4.97;3.67;;;;;;;;;;6232045;23;20154;-54
2022/05/19 00:32:30;;;;;;;3.77;3.40;;;;;;;;;;6240481;23;20238;-54
2022/05/19 00:35:03;;;;;;;4.63;4.07;;;;;;;;;;6231883;23;21209;-54
2022/05/19 00:37:29;;;;;;;5.27;3.73;;;;;;;;;;6237338;23;20457;-53
2022/05/19 00:39:57;;;;;;;6.90;4.10;;;;;;;;;;6224791;23;20693;-54
2022/05/19 00:42:43;;;;;;;4.97;3.47;;;;;;;;;;6231614;22;20472;-53
2022/05/19 00:45:14;;;;;;;4.27;3.50;;;;;;;;;;6227391;23;20433;-53
2022/05/19 00:47:47;;;;;;;4.30;3.90;;;;;;;;;;6238590;23;20843;-54
2022/05/19 00:50:22;;;;;;;3.83;3.53;;;;;;;;;;6222792;23;21007;-54
2022/05/19 00:52:48;;;;;;;4.17;3.40;;;;;;;;;;6235146;23;20365;-54
2022/05/19 00:55:20;;;;;;;4.80;3.90;;;;;;;;;;6233522;23;20428;-54
2022/05/19 00:57:53;;;;;;;3.83;3.33;;;;;;;;;;6236264;23;20509;-53
2022/05/19 01:00:20;;;;;;;4.20;3.60;;;;;;;;;;6230293;23;20370;-54
2022/05/19 01:02:51;;;;;;;4.73;3.50;;;;;;;;;;6235863;22;20455;-53
2022/05/19 01:05:28;;;;;;;5.33;3.80;;;;;;;;;;6229501;22;20988;-54
2022/05/19 01:07:56;;;;;;;4.27;3.87;;;;;;;;;;6231094;22;20412;-54
2022/05/19 01:10:42;;;;;;;4.43;3.70;;;;;;;;;;6234824;23;20402;-54
2022/05/19 01:13:16;;;;;;;5.23;3.93;;;;;;;;;;6230387;22;20418;-55
2022/05/19 01:16:07;;;;;;;3.17;2.90;;;;;;;;;;6229175;22;20835;-54
2022/05/19 01:18:33;;;;;;;7.20;3.50;;;;;;;;;;6234082;23;20458;-53
2022/05/19 01:20:59;;;;;;;4.60;3.87;;;;;;;;;;6232202;23;20439;-54
2022/05/19 01:23:26;;;;;;;3.80;3.40;;;;;;;;;;6234100;23;20822;-54
2022/05/19 01:25:56;;;;;;;6.30;3.53;;;;;;;;;;6233650;23;20438;-55
2022/05/19 01:28:22;;;;;;;3.60;3.30;;;;;;;;;;6235609;23;20375;-52
2022/05/19 01:30:59;;;;;;;4.63;3.40;;;;;;;;;;6230523;23;20715;-52
2022/05/19 01:33:29;;;;;;;4.27;3.33;;;;;;;;;;6208824;23;20897;-52
2022/05/19 01:36:12;;;;;;;5.73;3.53;;;;;;;;;;6232198;23;20374;-55
2022/05/19 01:38:41;;;;;;;4.60;3.13;;;;;;;;;;6238987;22;20468;-52
2022/05/19 01:41:11;;;;;;;4.70;3.70;;;;;;;;;;6231136;23;20367;-53
2022/05/19 01:43:40;;;;;;;4.43;3.17;;;;;;;;;;6238261;23;20752;-53
2022/05/19 01:46:21;;;;;;;5.27;4.10;;;;;;;;;;6232487;23;20865;-53
2022/05/19 01:48:49;;;;;;;10.77;4.10;;;;;;;;;;6234748;23;20424;-53
2022/05/19 01:51:18;;;;;;;4.03;3.60;;;;;;;;;;6224952;23;20835;-54
2022/05/19 01:53:44;;;;;;;4.77;3.60;;;;;;;;;;6237687;23;20402;-53
2022/05/19 01:56:13;;;;;;;5.63;3.70;;;;;;;;;;6218176;23;20795;-53
2022/05/19 01:58:50;;;;;;;4.57;3.43;;;;;;;;;;6236892;23;20374;-54
2022/05/19 02:01:18;;;;;;;5.80;4.30;;;;;;;;;;6230278;23;21140;-52
2022/05/19 02:03:52;;;;;;;4.60;3.87;;;;;;;;;;6237377;22;20390;-53
2022/05/19 02:06:25;;;;;;;4.53;2.90;;;;;;;;;;6218356;23;20891;-54
2022/05/19 02:08:54;;;;;;;4.50;3.40;;;;;;;;;;6233945;23;20378;-55
2022/05/19 02:11:23;;;;;;;5.13;3.53;;;;;;;;;;6221030;23;20750;-54
2022/05/19 02:13:49;;;;;;;5.43;3.73;;;;;;;;;;6236670;22;20374;-55
2022/05/19 02:16:18;;;;;;;3.60;3.23;;;;;;;;;;6227450;23;20385;-53
2022/05/19 02:18:54;;;;;;;5.30;3.27;;;;;;;;;;6261129;22;20437;-54
2022/05/19 02:21:20;;;;;;;3.53;3.23;;;;;;;;;;6222610;23;20465;-54
2022/05/19 02:23:46;;;;;;;4.20;3.50;;;;;;;;;;6237163;23;20414;-54
2022/05/19 02:26:12;;;;;;;4.23;3.00;;;;;;;;;;6216472;23;20606;-54
2022/05/19 02:28:39;;;;;;;3.90;3.60;;;;;;;;;;6240112;23;20441;-54
2022/05/19 02:31:05;;;;;;;3.40;3.10;;;;;;;;;;6230964;23;20378;-52
2022/05/19 02:33:31;;;;;;;3.97;3.17;;;;;;;;;;6237586;23;20393;-52
2022/05/19 02:36:03;;;;;;;3.87;3.33;;;;;;;;;;6224632;23;20841;-55
2022/05/19 02:38:29;;;;;;;2.93;2.63;;;;;;;;;;6236044;22;20341;-53
2022/05/19 02:40:55;;;;;;;3.83;3.00;;;;;;;;;;6202255;23;20381;-54
2022/05/19 02:43:22;;;;;;;4.20;3.47;;;;;;;;;;6238673;23;20370;-54
2022/05/19 02:46:06;;;;;;;4.90;3.70;;;;;;;;;;6232944;23;20421;-53
2022/05/19 02:48:34;;;;;;;3.80;3.37;;;;;;;;;;6234293;22;20881;-53
2022/05/19 02:51:00;;;;;;;6.37;3.30;;;;;;;;;;6221048;23;20537;-54
2022/05/19 02:53:26;;;;;;;3.40;3.10;;;;;;;;;;6233439;23;20841;-52
2022/05/19 02:55:52;;;;;;;3.60;3.20;;;;;;;;;;6219212;23;20389;-53
2022/05/19 02:58:19;;;;;;;5.00;4.60;;;;;;;;;;6236111;23;20378;-53
2022/05/19 03:00:50;;;;;;;3.43;3.13;;;;;;;;;;6230671;23;20405;-53
2022/05/19 03:03:16;;;;;;;5.63;3.57;;;;;;;;;;6234940;23;20393;-52
2022/05/19 03:05:43;;;;;;;4.20;3.80;;;;;;;;;;6232076;23;20666;-52
2022/05/19 03:08:09;;;;;;;3.53;3.03;;;;;;;;;;6235973;23;20378;-52
2022/05/19 03:10:47;;;;;;;10.07;3.50;;;;;;;;;;6225418;23;20901;-53
2022/05/19 03:13:28;;;;;;;3.00;2.63;;;;;;;;;;6235598;23;20403;-52
2022/05/19 03:15:54;;;;;;;3.67;3.13;;;;;;;;;;6224282;23;20719;-53
2022/05/19 03:18:21;;;;;;;4.63;3.40;;;;;;;;;;6235910;23;20852;-53
2022/05/19 03:20:47;;;;;;;3.37;3.07;;;;;;;;;;6232332;22;21073;-53
2022/05/19 03:23:13;;;;;;;3.57;3.27;;;;;;;;;;6237044;22;20375;-55
2022/05/19 03:25:47;;;;;;;4.60;3.07;;;;;;;;;;6224017;23;21346;-53
2022/05/19 03:28:13;;;;;;;6.27;3.37;;;;;;;;;;6236621;23;20363;-54
2022/05/19 03:30:40;;;;;;;3.53;3.23;;;;;;;;;;6225721;23;20742;-54
2022/05/19 03:33:07;;;;;;;3.73;3.37;;;;;;;;;;6237987;22;20377;-53
2022/05/19 03:35:33;;;;;;;4.23;3.83;;;;;;;;;;6233411;22;20413;-54
2022/05/19 03:38:00;;;;;;;3.87;3.47;;;;;;;;;;6233114;23;20590;-53
2022/05/19 03:40:30;;;;;;;3.83;3.20;;;;;;;;;;6230456;23;20432;-54
2022/05/19 03:42:58;;;;;;;3.63;3.33;;;;;;;;;;6233260;23;21029;-54
2022/05/19 03:45:55;;;;;;;3.37;3.07;;;;;;;;;;6237332;23;20429;-54
2022/05/19 03:48:35;;;;;;;3.23;2.90;;;;;;;;;;6214879;23;20711;-54
2022/05/19 03:51:05;;;;;;;3.83;3.43;;;;;;;;;;6232086;23;20495;-53
2022/05/19 03:53:31;;;;;;;4.20;3.80;;;;;;;;;;6230738;23;20406;-54
2022/05/19 03:56:00;;;;;;;4.13;3.77;;;;;;;;;;6238937;23;20677;-55
2022/05/19 03:58:27;;;;;;;3.40;3.10;;;;;;;;;;6220631;22;20583;-53
2022/05/19 04:01:31;;;;;;;5.87;3.80;;;;;;;;;;6234692;23;20378;-53
2022/05/19 04:04:03;;;;;;;4.63;4.23;;;;;;;;;;6229087;23;20529;-53
2022/05/19 04:06:30;;;;;;;5.40;3.43;;;;;;;;;;6231402;23;20378;-52
2022/05/19 04:08:55;;;;;;;5.43;3.17;;;;;;;;;;6231877;23;20424;-54
2022/05/19 04:11:55;;;;;;;4.67;3.27;;;;;;;;;;6229248;23;20975;-53
2022/05/19 04:14:23;;;;;;;5.43;4.60;;;;;;;;;;6233749;22;20377;-54
2022/05/19 04:17:10;;;;;;;6.37;5.00;;;;;;;;;;6227391;22;20390;-52
2022/05/19 04:19:39;;;;;;;3.80;3.50;;;;;;;;;;6225906;22;20390;-52
2022/05/19 04:22:37;;;;;;;8.93;3.90;;;;;;;;;;6237406;23;20455;-54
2022/05/19 04:25:09;;;;;;;8.20;4.20;;;;;;;;;;6232549;22;20271;-54
2022/05/19 04:27:59;;;;;;;5.20;3.83;;;;;;;;;;6234219;23;20374;-55
2022/05/19 04:30:25;;;;;;;4.93;4.13;;;;;;;;;;6237174;23;20393;-53
2022/05/19 04:32:51;;;;;;;4.47;3.73;;;;;;;;;;6200628;23;20818;-53
2022/05/19 04:35:17;;;;;;;8.23;3.30;;;;;;;;;;6234900;23;21059;-53
2022/05/19 04:37:55;;;;;;;7.47;3.33;;;;;;;;;;6233203;23;20375;-53
2022/05/19 04:40:22;;;;;;;5.83;3.53;;;;;;;;;;6236611;22;20761;-53
2022/05/19 04:42:49;;;;;;;7.13;3.67;;;;;;;;;;6218041;23;20481;-54
2022/05/19 04:45:16;;;;;;;4.00;3.00;;;;;;;;;;6236069;23;20426;-55
2022/05/19 04:48:14;;;;;;;3.87;3.30;;;;;;;;;;6240794;23;20382;-54
2022/05/19 04:50:43;;;;;;;4.40;3.57;;;;;;;;;;6235432;23;20845;-54
2022/05/19 04:53:13;;;;;;;6.23;3.83;;;;;;;;;;6228403;23;20871;-54
2022/05/19 04:55:39;;;;;;;7.87;3.10;;;;;;;;;;6236072;22;20792;-56
2022/05/19 04:58:06;;;;;;;4.10;3.07;;;;;;;;;;6231140;23;20876;-55
2022/05/19 05:00:32;;;;;;;3.83;3.40;;;;;;;;;;6238569;23;20520;-55
2022/05/19 05:03:04;;;;;;;5.23;3.23;;;;;;;;;;6228077;23;20394;-56
2022/05/19 05:05:30;;;;;;;7.57;3.50;;;;;;;;;;6236210;23;20426;-56
2022/05/19 05:07:56;;;;;;;6.60;3.83;;;;;;;;;;6227677;23;21062;-55
2022/05/19 05:10:23;;;;;;;3.90;3.50;;;;;;;;;;6238261;23;20375;-57
2022/05/19 05:13:20;;;;;;;5.10;3.77;;;;;;;;;;6239048;23;20396;-56
2022/05/19 05:15:49;;;;;;;4.80;4.30;;;;;;;;;;6221713;22;20409;-56
2022/05/19 05:18:15;;;;;;;3.80;3.33;;;;;;;;;;6226489;23;20390;-55
2022/05/19 05:20:47;;;;;;;4.10;3.10;;;;;;;;;;6240044;23;20385;-57
2022/05/19 05:23:13;;;;;;;3.83;3.00;;;;;;;;;;6219729;23;20386;-56
2022/05/19 05:25:39;;;;;;;2.97;2.77;;;;;;;;;;6241269;23;21198;-56
2022/05/19 05:28:05;;;;;;;4.47;3.67;;;;;;;;;;6222937;23;20497;-56
2022/05/19 05:30:31;;;;;;;4.10;3.00;;;;;;;;;;6226290;23;20375;-57
2022/05/19 05:33:35;;;;;;;4.53;3.20;;;;;;;;;;6237907;23;20382;-57
2022/05/19 05:36:13;;;;;;;4.63;3.47;;;;;;;;;;6232383;22;20386;-55
2022/05/19 05:38:45;;;;;;;3.80;3.20;;;;;;;;;;6228631;23;20728;-58
2022/05/19 05:41:36;;;;;;;4.30;3.17;;;;;;;;;;6237857;22;20381;-56
2022/05/19 05:44:06;;;;;;;7.13;4.30;;;;;;;;;;6220473;22;20965;-56
2022/05/19 05:46:32;;;;;;;5.60;3.70;;;;;;;;;;6238563;23;20481;-56
2022/05/19 05:48:58;;;;;;;9.37;3.27;;;;;;;;;;6222283;23;20606;-57
2022/05/19 05:51:24;;;;;;;4.00;3.40;;;;;;;;;;6233583;23;20440;-57
2022/05/19 05:54:00;;;;;;;4.20;3.10;;;;;;;;;;6228600;23;20819;-58
2022/05/19 05:56:29;;;;;;;4.53;3.10;;;;;;;;;;6228425;23;20782;-54
2022/05/19 05:58:55;;;;;;;6.70;3.43;;;;;;;;;;6217927;23;20433;-54
2022/05/19 06:01:21;;;;;;;4.30;3.13;;;;;;;;;;6235367;23;20417;-56
2022/05/19 06:03:47;;;;;;;6.13;3.70;;;;;;;;;;6231601;23;20378;-53
2022/05/19 06:06:13;;;;;;;3.43;2.73;;;;;;;;;;6219278;23;20384;-55
2022/05/19 06:08:39;;;;;;;3.93;3.10;;;;;;;;;;6235108;23;20469;-55
2022/05/19 06:11:06;;;;;;;5.40;3.87;;;;;;;;;;6227700;23;20389;-56
2022/05/19 06:13:32;;;;;;;4.53;3.27;;;;;;;;;;6240777;23;20378;-55
2022/05/19 06:16:11;;;;;;;4.17;3.03;;;;;;;;;;6225690;23;20445;-57
2022/05/19 06:18:38;;;;;;;9.23;3.43;;;;;;;;;;6240081;23;20901;-55
2022/05/19 06:21:05;;;;;;;5.83;3.13;;;;;;;;;;6223098;23;20378;-56
2022/05/19 06:23:32;;;;;;;3.90;3.37;;;;;;;;;;6227074;23;20598;-54
2022/05/19 06:25:58;;;;;;;5.60;3.37;;;;;;;;;;6231439;23;20426;-55
2022/05/19 06:28:24;;;;;;;4.80;3.03;;;;;;;;;;6224457;23;20381;-55
2022/05/19 06:30:50;;;;;;;4.13;3.53;;;;;;;;;;6237833;23;20401;-56
2022/05/19 06:33:20;;;;;;;4.57;3.07;;;;;;;;;;6212412;23;20393;-56
2022/05/19 06:35:46;;;;;;;4.10;3.10;;;;;;;;;;6232327;22;20436;-55
2022/05/19 06:38:13;;;;;;;3.73;3.30;;;;;;;;;;6212506;23;20386;-57
2022/05/19 06:40:41;;;;;;;4.37;3.40;;;;;;;;;;6231622;23;20405;-56
2022/05/19 06:43:11;;;;;;;7.90;3.63;;;;;;;;;;6194455;23;20394;-55
2022/05/19 06:45:37;;;;;;;3.97;3.50;;;;;;;;;;6212547;23;20703;-55
2022/05/19 06:48:23;;;;;;;5.43;3.37;;;;;;;;;;6217208;23;20958;-55
2022/05/19 06:50:50;;;;;;;4.17;3.77;;;;;;;;;;6207499;23;20562;-55
2022/05/19 06:53:15;;;;;;;5.67;3.60;;;;;;;;;;6231542;23;20451;-54
2022/05/19 06:55:52;;;;;;;4.43;3.80;;;;;;;;;;6219034;23;20519;-56
2022/05/19 06:58:19;;;;;;;6.30;3.67;;;;;;;;;;6232461;22;20978;-56
2022/05/19 07:00:45;;;;;;;5.07;3.53;;;;;;;;;;6215254;23;20532;-56
2022/05/19 07:03:11;;;;;;;4.40;4.00;;;;;;;;;;6231887;23;20821;-55
2022/05/19 07:05:42;;;;;;;4.30;3.90;;;;;;;;;;6214710;23;20507;-56
2022/05/19 07:08:08;;;;;;;4.50;3.93;;;;;;;;;;6233123;22;20397;-56
2022/05/19 07:10:40;;;;;;;4.23;3.83;;;;;;;;;;6213437;23;20842;-56
2022/05/19 07:13:20;;;;;;;9.17;4.30;;;;;;;;;;6231360;22;20389;-55
2022/05/19 07:15:50;;;;;;;5.70;4.20;;;;;;;;;;6245551;22;20765;-55
2022/05/19 07:18:16;;;;;;;4.40;3.30;;;;;;;;;;6234427;23;20377;-56
2022/05/19 07:20:52;;;;;;;4.07;3.73;;;;;;;;;;6228721;23;20375;-57
2022/05/19 07:23:28;;;;;;;4.53;4.13;;;;;;;;;;6230236;22;20831;-56
2022/05/19 07:25:54;;;;;;;5.50;4.40;;;;;;;;;;6225498;22;20434;-55
2022/05/19 07:28:26;;;;;;;4.67;3.60;;;;;;;;;;6232254;22;20746;-55
2022/05/19 07:30:52;;;;;;;7.03;4.27;;;;;;;;;;6253102;22;20421;-55
2022/05/19 07:33:19;;;;;;;4.57;4.17;;;;;;;;;;6233144;23;20639;-56
2022/05/19 07:35:49;;;;;;;4.43;4.03;;;;;;;;;;6214478;23;20994;-55
2022/05/19 07:38:15;;;;;;;4.30;3.90;;;;;;;;;;6230758;22;20382;-56
2022/05/19 07:40:44;;;;;;;4.00;3.53;;;;;;;;;;6221378;23;20420;-57
2022/05/19 07:45:59;;;;;;;4.80;3.67;;;;;;;;;;6229551;23;20483;-57
2022/05/19 07:48:25;;;;;;;4.20;3.80;;;;;;;;;;6233249;23;20379;-55
2022/05/19 07:50:54;;;;;;;4.30;3.90;;;;;;;;;;6224849;23;20525;-57
2022/05/19 07:53:22;;;;;;;6.67;3.57;;;;;;;;;;6234511;22;20732;-55
2022/05/19 07:55:48;;;;;;;3.90;3.50;;;;;;;;;;6222040;23;20401;-55
2022/05/19 07:58:16;;;;;;;4.37;3.63;;;;;;;;;;6232378;23;20375;-55
2022/05/19 08:00:45;;;;;;;5.23;4.03;;;;;;;;;;6223532;23;20373;-56
2022/05/19 08:03:14;;;;;;;4.23;3.83;;;;;;;;;;6229800;22;20378;-57
2022/05/19 08:05:40;;;;;;;4.60;4.17;;;;;;;;;;6231112;23;20442;-55
2022/05/19 08:11:10;;;;;;;4.97;3.40;;;;;;;;;;6225682;23;20782;-57
2022/05/19 08:17:00;;;;;;;4.07;3.67;;;;;;;;;;6232009;23;20401;-57
2022/05/19 08:19:29;;;;;;;4.20;3.80;;;;;;;;;;6222704;22;20378;-56
2022/05/19 08:21:56;;;;;;;8.33;3.57;;;;;;;;;;6229532;23;20378;-56
2022/05/19 08:24:24;;;;;;;4.10;3.67;;;;;;;;;;6216536;23;20468;-56
2022/05/19 08:26:54;;;;;;;5.50;3.73;;;;;;;;;;6231446;22;20379;-60
2022/05/19 08:29:20;;;;;;;4.83;3.70;;;;;;;;;;6224031;22;20686;-56
2022/05/19 08:31:46;;;;;;;5.27;4.20;;;;;;;;;;6230049;23;20456;-55
2022/05/19 08:34:13;;;;;;;6.00;3.77;;;;;;;;;;6221887;23;20388;-55
2022/05/19 08:36:43;;;;;;;5.10;4.00;;;;;;;;;;6206042;23;21097;-57
2022/05/19 08:39:09;;;;;;;4.50;4.10;;;;;;;;;;6212225;23;20386;-56
2022/05/19 08:41:39;;;;;;;5.43;3.97;;;;;;;;;;6236179;23;20390;-56
2022/05/19 08:44:08;;;;;;;6.00;3.80;;;;;;;;;;6215101;23;20402;-55
2022/05/19 08:46:42;;;;;;;3.70;3.30;;;;;;;;;;6232506;23;20449;-56
2022/05/19 08:49:08;;;;;;;6.13;3.60;;;;;;;;;;6213410;23;21119;-55
2022/05/19 08:51:42;;;;;;;5.10;3.90;;;;;;;;;;6233239;22;20380;-55
2022/05/19 08:54:13;;;;;;;6.50;4.27;;;;;;;;;;6215543;22;20386;-57
2022/05/19 08:56:41;;;;;;;5.27;3.57;;;;;;;;;;6232172;23;20529;-58
2022/05/19 08:59:10;;;;;;;3.80;3.50;;;;;;;;;;6219673;23;20383;-58
2022/05/19 09:02:01;;;;;;;4.20;3.80;;;;;;;;;;6232090;23;20366;-58
2022/05/19 09:04:52;;;;;;;3.80;3.50;;;;;;;;;;6224107;23;20672;-57
2022/05/19 09:10:24;;;;;;;7.67;3.37;;;;;;;;;;6234816;23;20449;-56
2022/05/19 09:12:56;;;;;;;5.17;3.50;;;;;;;;;;6221133;23;20570;-56
2022/05/19 09:15:22;;;;;;;5.73;3.53;;;;;;;;;;6229175;22;20410;-56
2022/05/19 09:17:49;;;;;;;3.67;3.23;;;;;;;;;;6203670;23;20389;-57
2022/05/19 09:20:17;;;;;;;3.40;3.10;;;;;;;;;;6254057;22;20378;-56
2022/05/19 09:22:54;;;;;;;3.50;3.20;;;;;;;;;;6232420;22;20374;-56
2022/05/19 09:25:25;;;;;;;3.57;3.23;;;;;;;;;;6224657;22;20491;-56
2022/05/19 09:28:25;;;;;;;4.17;3.80;;;;;;;;;;6230418;23;20366;-56
2022/05/19 09:30:54;;;;;;;5.97;4.27;;;;;;;;;;6234201;22;20153;-56
2022/05/19 09:33:44;;;;;;;4.07;3.33;;;;;;;;;;6226442;23;20382;-57
2022/05/19 09:36:13;;;;;;;6.33;4.40;;;;;;;;;;6231796;22;20389;-56
2022/05/19 09:41:48;;;;;;;5.63;4.07;;;;;;;;;;6225152;22;20453;-55
2022/05/19 09:44:42;;;;;;;5.50;3.67;;;;;;;;;;6237838;23;20838;-58
2022/05/19 09:47:25;;;;;;;6.37;3.93;;;;;;;;;;6233314;22;20378;-57
2022/05/19 09:49:53;;;;;;;4.00;3.47;;;;;;;;;;6224724;23;20374;-56
2022/05/19 09:52:23;;;;;;;5.00;3.50;;;;;;;;;;6236556;23;20517;-56
2022/05/19 09:54:54;;;;;;;4.40;4.00;;;;;;;;;;6198026;23;20398;-55
2022/05/19 09:57:28;;;;;;;4.03;3.63;;;;;;;;;;6234996;23;20457;-55
2022/05/19 09:59:54;;;;;;;4.07;3.67;;;;;;;;;;6221871;23;20378;-54
2022/05/19 10:02:37;;;;;;;4.77;3.67;;;;;;;;;;6209511;23;20515;-56
2022/05/19 10:05:06;;;;;;;3.60;3.30;;;;;;;;;;6228217;23;20190;-56
2022/05/19 10:07:44;;;;;;;5.37;4.17;;;;;;;;;;6235002;23;20816;-56
2022/05/19 10:10:18;;;;;;;6.93;4.13;;;;;;;;;;6228939;23;20382;-55
2022/05/19 10:12:46;;;;;;;5.63;3.70;;;;;;;;;;6237492;23;20496;-55
2022/05/19 10:15:16;;;;;;;4.87;3.20;;;;;;;;;;6193152;23;20378;-56
2022/05/19 10:17:50;;;;;;;4.43;4.03;;;;;;;;;;6233463;23;20386;-56
2022/05/19 10:20:35;;;;;;;4.43;4.03;;;;;;;;;;6217840;22;20931;-55
2022/05/19 10:23:05;;;;;;;4.07;3.77;;;;;;;;;;6231462;23;20382;-55
2022/05/19 10:25:38;;;;;;;7.90;3.57;;;;;;;;;;6228855;23;20937;-55
2022/05/19 10:31:02;;;;;;;3.73;3.43;;;;;;;;;;6233346;23;20783;-55
2022/05/19 10:34:11;;;;;;;4.77;4.20;;;;;;;;;;6243254;23;20374;-55
2022/05/19 10:36:47;;;;;;;5.03;4.20;;;;;;;;;;6217602;23;20429;-55
2022/05/19 10:39:27;;;;;;;3.90;3.50;;;;;;;;;;6244006;22;20380;-56
2022/05/19 10:41:58;;;;;;;6.00;4.30;;;;;;;;;;6229203;23;20427;-57
2022/05/19 10:44:29;;;;;;;4.27;3.70;;;;;;;;;;6241188;23;20425;-56
2022/05/19 10:47:17;;;;;;;4.03;3.60;;;;;;;;;;6222779;23;20507;-54
2022/05/19 10:50:02;;;;;;;6.57;4.37;;;;;;;;;;6238255;23;20366;-56
2022/05/19 10:53:04;;;;;;;6.50;4.27;;;;;;;;;;6236983;22;20477;-56
2022/05/19 10:55:45;;;;;;;6.60;3.70;;;;;;;;;;6145292;23;20589;-55
2022/05/19 10:58:14;;;;;;;5.00;4.10;;;;;;;;;;6231072;22;20578;-55
2022/05/19 11:04:07;;;;;;;6.60;4.50;;;;;;;;;;6228269;23;20376;-57
2022/05/19 11:06:39;;;;;;;6.20;4.60;;;;;;;;;;6210473;23;21081;-56
2022/05/19 11:09:23;;;;;;;5.00;4.60;;;;;;;;;;6237850;23;20374;-56
2022/05/19 11:12:19;;;;;;;5.30;4.80;;;;;;;;;;6228851;23;20857;-55
2022/05/19 11:15:04;;;;;;;5.20;4.70;;;;;;;;;;6220513;22;20440;-55
2022/05/19 11:17:33;;;;;;;5.77;4.03;;;;;;;;;;6228369;23;20709;-54
2022/05/19 11:20:03;;;;;;;5.10;4.43;;;;;;;;;;6239460;22;20371;-56
2022/05/19 11:22:30;;;;;;;5.00;4.40;;;;;;;;;;6208664;23;20449;-55
2022/05/19 11:28:00;;;;;;;4.17;3.67;;;;;;;;;;6224524;23;20769;-55
2022/05/19 11:30:29;;;;;;;6.13;5.30;;;;;;;;;;6238067;23;20764;-56
2022/05/19 11:32:57;;;;;;;5.93;4.80;;;;;;;;;;6223254;23;20548;-56
2022/05/19 11:35:27;;;;;;;5.73;4.40;;;;;;;;;;6238311;23;20427;-54
2022/05/19 11:38:19;;;;;;;5.70;4.73;;;;;;;;;;6214959;23;20755;-56
2022/05/19 11:41:05;;;;;;;6.50;4.87;;;;;;;;;;6237502;23;20705;-56
2022/05/19 11:43:42;;;;;;;7.90;4.40;;;;;;;;;;6222129;22;20378;-55
2022/05/19 11:46:08;;;;;;;5.20;4.67;;;;;;;;;;6224826;23;20429;-56
2022/05/19 11:57:31;;;;;;;6.23;5.20;;;;;;;;;;6234357;23;20872;-57
2022/05/19 11:59:58;;;;;;;5.40;4.90;;;;;;;;;;6229234;23;20428;-57
2022/05/19 12:02:32;;;;;;;5.13;4.10;;;;;;;;;;6234113;23;20661;-56
2022/05/19 12:05:20;;;;;;;6.90;5.10;;;;;;;;;;6232750;22;21191;-58
2022/05/19 12:07:52;;;;;;;6.80;6.20;;;;;;;;;;6236030;23;20394;-58
2022/05/19 12:10:20;;;;;;;5.60;5.13;;;;;;;;;;6192769;23;20401;-56
2022/05/19 12:12:50;;;;;;;5.27;4.87;;;;;;;;;;6234516;23;20378;-56
2022/05/19 12:15:25;;;;;;;10.67;5.00;;;;;;;;;;6228464;23;20357;-56
2022/05/19 12:18:14;;;;;;;9.40;4.87;;;;;;;;;;6235093;23;20449;-56
2022/05/19 12:20:54;;;;;;;6.37;5.20;;;;;;;;;;6227993;22;20461;-56
2022/05/19 12:23:30;;;;;;;9.07;5.17;;;;;;;;;;6236926;22;20366;-55
2022/05/19 12:26:07;;;;;;;6.43;5.90;;;;;;;;;;6211468;22;20433;-55
2022/05/19 12:28:33;;;;;;;6.83;4.90;;;;;;;;;;6226484;23;20750;-56
2022/05/19 12:34:00;;;;;;;5.63;5.13;;;;;;;;;;6225459;23;20380;-57
2022/05/19 12:36:41;;;;;;;8.63;5.07;;;;;;;;;;6230368;22;20795;-56
2022/05/19 12:39:09;;;;;;;6.60;5.13;;;;;;;;;;6214418;22;21404;-56
2022/05/19 12:41:37;;;;;;;5.33;4.67;;;;;;;;;;6233974;22;20457;-56
2022/05/19 12:44:22;;;;;;;5.33;4.83;;;;;;;;;;6222039;23;20549;-60
2022/05/19 12:46:48;;;;;;;5.00;4.60;;;;;;;;;;6230078;23;20938;-55
2022/05/19 12:49:23;;;;;;;8.37;4.83;;;;;;;;;;6214567;23;20382;-55
2022/05/19 12:52:02;;;;;;;5.47;4.80;;;;;;;;;;6233081;22;20544;-56
2022/05/19 12:54:28;;;;;;;5.30;4.80;;;;;;;;;;6214575;23;20378;-55
2022/05/19 12:56:57;;;;;;;5.03;4.53;;;;;;;;;;6230493;23;20445;-56
2022/05/19 12:59:23;;;;;;;5.43;4.93;;;;;;;;;;6214877;23;20491;-56
2022/05/19 13:01:51;;;;;;;6.40;5.07;;;;;;;;;;6232764;22;20693;-56
2022/05/19 13:04:28;;;;;;;6.90;5.93;;;;;;;;;;6226379;23;20502;-55
2022/05/19 13:07:15;;;;;;;5.30;4.80;;;;;;;;;;6230758;23;20887;-56
2022/05/19 13:09:42;;;;;;;8.13;5.27;;;;;;;;;;6229947;22;20744;-56
2022/05/19 13:12:10;;;;;;;7.90;5.73;;;;;;;;;;6231942;23;20807;-57
2022/05/19 13:14:40;;;;;;;5.10;4.50;;;;;;;;;;6219056;23;20485;-56
2022/05/19 13:17:12;;;;;;;5.13;4.63;;;;;;;;;;6231025;23;20841;-55
2022/05/19 13:19:38;;;;;;;4.40;4.10;;;;;;;;;;6221536;22;20401;-55
2022/05/19 13:22:06;;;;;;;5.53;5.03;;;;;;;;;;6202440;23;20842;-56
2022/05/19 13:24:37;;;;;;;6.57;4.80;;;;;;;;;;6222662;23;20445;-58
2022/05/19 13:32:35;;;;;;;8.90;5.40;;;;;;;;;;6231588;23;20741;-55
2022/05/19 13:35:08;;;;;;;4.80;4.40;;;;;;;;;;6203764;22;20382;-56
2022/05/19 13:37:41;;;;;;;5.90;4.77;;;;;;;;;;6206454;23;20390;-56
2022/05/19 13:40:14;;;;;;;6.30;4.63;;;;;;;;;;6224843;23;20955;-56
2022/05/19 13:42:45;;;;;;;7.37;5.30;;;;;;;;;;6236563;22;20605;-57
2022/05/19 13:45:16;;;;;;;6.17;5.13;;;;;;;;;;6193804;23;20441;-57
2022/05/19 13:47:43;;;;;;;5.93;5.43;;;;;;;;;;6233349;23;20422;-56
2022/05/19 13:50:09;;;;;;;5.30;4.80;;;;;;;;;;6221273;23;20465;-55
2022/05/19 13:52:36;;;;;;;5.53;4.93;;;;;;;;;;6232891;23;20397;-57
2022/05/19 13:55:03;;;;;;;4.93;4.43;;;;;;;;;;6215544;23;20386;-57
2022/05/19 13:57:30;;;;;;;6.23;5.50;;;;;;;;;;6232506;22;20378;-55
2022/05/19 13:59:58;;;;;;;5.23;4.70;;;;;;;;;;6214448;23;20705;-56
2022/05/19 14:02:29;;;;;;;5.27;4.77;;;;;;;;;;6234571;23;20382;-56
2022/05/19 14:04:55;;;;;;;5.10;4.50;;;;;;;;;;6203356;22;20743;-57
2022/05/19 14:07:22;;;;;;;6.87;4.57;;;;;;;;;;6230385;23;20707;-57
2022/05/19 14:09:54;;;;;;;7.90;5.10;;;;;;;;;;6215888;22;20375;-57
2022/05/19 14:12:21;;;;;;;5.27;4.77;;;;;;;;;;6232799;23;20421;-56
2022/05/19 14:14:48;;;;;;;5.27;4.63;;;;;;;;;;6221263;23;20583;-56
2022/05/19 14:17:14;;;;;;;5.63;5.03;;;;;;;;;;6234166;23;20390;-57
2022/05/19 14:19:41;;;;;;;5.73;5.17;;;;;;;;;;6215433;23;20378;-56
2022/05/19 14:22:23;;;;;;;11.77;4.83;;;;;;;;;;6233541;22;21099;-55
2022/05/19 14:24:53;;;;;;;6.27;5.00;;;;;;;;;;6220254;23;20437;-55
2022/05/19 14:27:26;;;;;;;6.60;5.10;;;;;;;;;;6235366;23;20366;-58
2022/05/19 14:29:52;;;;;;;5.33;4.83;;;;;;;;;;6224419;23;20477;-56
2022/05/19 14:32:29;;;;;;;5.77;5.23;;;;;;;;;;6233621;23;20911;-56
2022/05/19 14:35:07;;;;;;;6.03;5.53;;;;;;;;;;6229520;23;20405;-57
2022/05/19 14:38:07;;;;;;;14.80;7.23;;;;;;;;;;6231832;23;20841;-56
2022/05/19 14:43:33;;;;;;;9.90;6.00;;;;;;;;;;6230177;23;20378;-56
2022/05/19 14:46:01;;;;;;;9.67;4.90;;;;;;;;;;6235759;23;20433;-55
2022/05/19 14:48:40;;;;;;;6.03;5.13;;;;;;;;;;6189876;23;20398;-56
2022/05/19 14:51:11;;;;;;;5.53;4.33;;;;;;;;;;6234852;23;20378;-56
2022/05/19 14:53:37;;;;;;;8.43;4.67;;;;;;;;;;6222675;23;20374;-57
2022/05/19 14:56:10;;;;;;;7.03;4.93;;;;;;;;;;6233592;23;20376;-56
2022/05/19 14:58:39;;;;;;;5.67;4.60;;;;;;;;;;6223059;23;20385;-55
2022/05/19 15:01:05;;;;;;;7.63;4.27;;;;;;;;;;6236527;23;20857;-55
2022/05/19 15:03:31;;;;;;;5.70;5.20;;;;;;;;;;6227968;23;20378;-57
2022/05/19 15:05:57;;;;;;;6.30;5.20;;;;;;;;;;6234833;23;20463;-57
2022/05/19 15:08:23;;;;;;;6.03;4.83;;;;;;;;;;6207634;22;20747;-57
2022/05/19 15:10:50;;;;;;;4.70;4.20;;;;;;;;;;6236638;23;20457;-56
2022/05/19 15:13:26;;;;;;;7.73;5.23;;;;;;;;;;6228065;23;20517;-55
2022/05/19 15:15:53;;;;;;;7.40;5.10;;;;;;;;;;6236695;22;20386;-56
2022/05/19 15:18:19;;;;;;;5.93;4.90;;;;;;;;;;6217124;23;20780;-55
2022/05/19 15:20:46;;;;;;;6.23;4.63;;;;;;;;;;6236732;23;20702;-59
2022/05/19 15:23:14;;;;;;;7.07;4.33;;;;;;;;;;6221562;23;20382;-56
2022/05/19 15:25:40;;;;;;;4.80;4.40;;;;;;;;;;6237510;22;20828;-55
2022/05/19 15:28:15;;;;;;;9.13;4.73;;;;;;;;;;6223965;23;20587;-56
2022/05/19 15:30:44;;;;;;;6.00;4.57;;;;;;;;;;6234050;23;20370;-56
2022/05/19 15:33:10;;;;;;;8.70;4.93;;;;;;;;;;6219858;23;20417;-56
2022/05/19 15:35:40;;;;;;;6.10;5.00;;;;;;;;;;6236818;23;20355;-58
2022/05/19 15:38:27;;;;;;;5.20;4.50;;;;;;;;;;6233337;23;20406;-58
2022/05/19 15:43:58;;;;;;;6.13;5.63;;;;;;;;;;6207592;23;20369;-57
2022/05/19 15:46:24;;;;;;;5.23;4.73;;;;;;;;;;6234089;22;20429;-57
2022/05/19 15:48:50;;;;;;;4.97;4.57;;;;;;;;;;6216064;23;20379;-56
2022/05/19 15:51:18;;;;;;;10.70;5.50;;;;;;;;;;6234117;23;20873;-56
2022/05/19 15:53:44;;;;;;;6.83;4.73;;;;;;;;;;6216275;22;20459;-55
2022/05/19 15:56:11;;;;;;;10.53;5.73;;;;;;;;;;6233635;22;20440;-62
2022/05/19 15:58:37;;;;;;;5.00;4.53;;;;;;;;;;6221144;23;20369;-55